sensor_id;sensor_type;location;lat;lon;timestamp;pressure;altitude;pressure_sealevel;temperature;humidity
47785;BME280;35233;55.686;37.848;2023-11-19T00:01:55;100715.34;;;6.10;49.54
47785;BME280;35233;55.686;37.848;2023-11-19T00:04:21;100711.84;;;6.08;49.41
47785;BME280;35233;55.686;37.848;2023-11-19T00:06:48;100703.13;;;6.09;49.38
47785;BME280;35233;55.686;37.848;2023-11-19T00:09:13;100694.31;;;6.04;49.08
47785;BME280;35233;55.686;37.848;2023-11-19T00:11:40;100704.84;;;6.07;49.41
47785;BME280;35233;55.686;37.848;2023-11-19T00:14:06;100701.34;;;6.06;49.58
47785;BME280;35233;55.686;37.848;2023-11-19T00:16:34;100703.97;;;6.06;49.49
47785;BME280;35233;55.686;37.848;2023-11-19T00:19:00;100695.22;;;6.07;49.20
47785;BME280;35233;55.686;37.848;2023-11-19T00:21:25;100697.84;;;6.07;49.41
47785;BME280;35233;55.686;37.848;2023-11-19T00:23:54;100689.06;;;6.04;49.32
47785;BME280;35233;55.686;37.848;2023-11-19T00:26:19;100686.47;;;6.05;48.96
47785;BME280;35233;55.686;37.848;2023-11-19T00:28:45;100694.31;;;6.04;49.64
47785;BME280;35233;55.686;37.848;2023-11-19T00:31:13;100686.47;;;6.05;49.20
47785;BME280;35233;55.686;37.848;2023-11-19T00:33:38;100675.94;;;5.98;49.57
47785;BME280;35233;55.686;37.848;2023-11-19T00:36:05;100689.09;;;6.05;49.10
47785;BME280;35233;55.686;37.848;2023-11-19T00:38:30;100683.84;;;6.07;49.52
47785;BME280;35233;55.686;37.848;2023-11-19T00:40:56;100688.19;;;6.05;48.86
47785;BME280;35233;55.686;37.848;2023-11-19T00:43:21;100673.31;;;5.98;48.93
47785;BME280;35233;55.686;37.848;2023-11-19T00:45:47;100689.06;;;6.01;49.41
47785;BME280;35233;55.686;37.848;2023-11-19T00:48:16;100678.59;;;6.04;48.88
47785;BME280;35233;55.686;37.848;2023-11-19T00:50:42;100678.56;;;6.01;49.14
47785;BME280;35233;55.686;37.848;2023-11-19T00:53:09;100676.81;;;6.00;49.50
47785;BME280;35233;55.686;37.848;2023-11-19T00:55:35;100675.06;;;6.02;49.30
47785;BME280;35233;55.686;37.848;2023-11-19T00:58:00;100666.34;;;6.03;48.77
47785;BME280;35233;55.686;37.848;2023-11-19T01:00:26;100666.34;;;6.03;49.29
47785;BME280;35233;55.686;37.848;2023-11-19T01:02:52;100673.38;;;6.05;49.48
47785;BME280;35233;55.686;37.848;2023-11-19T01:05:19;100668.06;;;5.98;49.42
47785;BME280;35233;55.686;37.848;2023-11-19T01:07:47;100677.69;;;6.02;49.22
47785;BME280;35233;55.686;37.848;2023-11-19T01:10:13;100674.19;;;5.98;49.20
47785;BME280;35233;55.686;37.848;2023-11-19T01:12:38;100669.78;;;5.96;49.26
47785;BME280;35233;55.686;37.848;2023-11-19T01:15:05;100655.81;;;5.94;49.31
47785;BME280;35233;55.686;37.848;2023-11-19T01:17:31;100647.06;;;5.98;49.01
47785;BME280;35233;55.686;37.848;2023-11-19T01:19:57;100647.94;;;5.95;49.13
47785;BME280;35233;55.686;37.848;2023-11-19T01:22:23;100645.31;;;5.98;49.15
47785;BME280;35233;55.686;37.848;2023-11-19T01:24:48;100642.69;;;5.95;48.64
47785;BME280;35233;55.686;37.848;2023-11-19T01:27:14;100628.69;;;5.93;49.30
47785;BME280;35233;55.686;37.848;2023-11-19T01:29:39;100621.66;;;5.92;48.90
47785;BME280;35233;55.686;37.848;2023-11-19T01:32:05;100628.69;;;5.96;48.67
47785;BME280;35233;55.686;37.848;2023-11-19T01:34:30;100630.44;;;5.94;48.91
47785;BME280;35233;55.686;37.848;2023-11-19T01:36:56;100629.56;;;5.95;48.97
47785;BME280;35233;55.686;37.848;2023-11-19T01:39:21;100627.75;;;5.89;49.09
47785;BME280;35233;55.686;37.848;2023-11-19T01:41:47;100628.69;;;5.93;49.26
47785;BME280;35233;55.686;37.848;2023-11-19T01:44:13;100632.13;;;5.92;48.91
47785;BME280;35233;55.686;37.848;2023-11-19T01:46:40;100631.28;;;5.93;48.84
47785;BME280;35233;55.686;37.848;2023-11-19T01:49:07;100626.00;;;5.85;49.13
47785;BME280;35233;55.686;37.848;2023-11-19T01:51:34;100636.50;;;5.90;49.03
47785;BME280;35233;55.686;37.848;2023-11-19T01:54:00;100625.13;;;5.88;49.11
47785;BME280;35233;55.686;37.848;2023-11-19T01:56:27;100627.72;;;5.86;48.48
47785;BME280;35233;55.686;37.848;2023-11-19T01:58:54;100632.16;;;5.90;49.00
47785;BME280;35233;55.686;37.848;2023-11-19T02:01:21;100627.75;;;5.89;49.13
47785;BME280;35233;55.686;37.848;2023-11-19T02:03:47;100628.66;;;5.92;48.54
47785;BME280;35233;55.686;37.848;2023-11-19T02:06:12;100631.25;;;5.88;48.82
47785;BME280;35233;55.686;37.848;2023-11-19T02:08:39;100630.38;;;5.85;48.81
47785;BME280;35233;55.686;37.848;2023-11-19T02:11:05;100623.34;;;5.82;48.82
47785;BME280;35233;55.686;37.848;2023-11-19T02:13:32;100626.88;;;5.89;48.61
47785;BME280;35233;55.686;37.848;2023-11-19T02:15:57;100623.34;;;5.87;48.78
47785;BME280;35233;55.686;37.848;2023-11-19T02:18:26;100616.31;;;5.81;48.65
47785;BME280;35233;55.686;37.848;2023-11-19T02:20:56;100618.09;;;5.84;48.73
47785;BME280;35233;55.686;37.848;2023-11-19T02:23:23;100632.09;;;5.84;49.08
47785;BME280;35233;55.686;37.848;2023-11-19T02:28:20;100632.94;;;5.80;49.20
47785;BME280;35233;55.686;37.848;2023-11-19T02:30:46;100628.56;;;5.79;48.52
47785;BME280;35233;55.686;37.848;2023-11-19T02:33:11;100620.72;;;5.79;48.93
47785;BME280;35233;55.686;37.848;2023-11-19T02:35:38;100627.69;;;5.80;49.33
47785;BME280;35233;55.686;37.848;2023-11-19T02:38:03;100628.59;;;5.84;48.61
47785;BME280;35233;55.686;37.848;2023-11-19T02:40:29;100620.75;;;5.85;49.00
47785;BME280;35233;55.686;37.848;2023-11-19T02:42:54;100612.81;;;5.76;48.82
47785;BME280;35233;55.686;37.848;2023-11-19T02:45:22;100618.94;;;5.81;48.82
47785;BME280;35233;55.686;37.848;2023-11-19T02:47:48;100611.94;;;5.74;48.71
47785;BME280;35233;55.686;37.848;2023-11-19T02:50:14;100622.44;;;5.77;48.89
47785;BME280;35233;55.686;37.848;2023-11-19T02:52:42;100617.19;;;5.77;48.44
47785;BME280;35233;55.686;37.848;2023-11-19T02:55:09;100615.44;;;5.73;48.43
47785;BME280;35233;55.686;37.848;2023-11-19T02:57:41;100612.81;;;5.73;49.03
47785;BME280;35233;55.686;37.848;2023-11-19T03:00:19;100616.28;;;5.72;49.16
47785;BME280;35233;55.686;37.848;2023-11-19T03:02:49;100618.91;;;5.72;48.45
47785;BME280;35233;55.686;37.848;2023-11-19T03:05:24;100614.53;;;5.76;48.07
47785;BME280;35233;55.686;37.848;2023-11-19T03:07:50;100621.50;;;5.69;48.60
47785;BME280;35233;55.686;37.848;2023-11-19T03:10:15;100618.06;;;5.73;48.74
47785;BME280;35233;55.686;37.848;2023-11-19T03:12:41;100608.34;;;5.63;48.10
47785;BME280;35233;55.686;37.848;2023-11-19T03:15:07;100618.00;;;5.68;48.17
47785;BME280;35233;55.686;37.848;2023-11-19T03:17:44;100614.50;;;5.70;48.31
47785;BME280;35233;55.686;37.848;2023-11-19T03:20:11;100612.75;;;5.65;48.53
47785;BME280;35233;55.686;37.848;2023-11-19T03:22:43;100608.34;;;5.63;48.44
47785;BME280;35233;55.686;37.848;2023-11-19T03:25:10;100613.59;;;5.63;48.39
47785;BME280;35233;55.686;37.848;2023-11-19T03:27:39;100622.38;;;5.68;48.64
47785;BME280;35233;55.686;37.848;2023-11-19T03:30:07;100625.00;;;5.70;48.85
47785;BME280;35233;55.686;37.848;2023-11-19T03:32:34;100624.13;;;5.69;48.62
47785;BME280;35233;55.686;37.848;2023-11-19T03:35:01;100618.91;;;5.71;49.00
47785;BME280;35233;55.686;37.848;2023-11-19T03:37:27;100609.25;;;5.66;48.19
47785;BME280;35233;55.686;37.848;2023-11-19T03:39:54;100611.00;;;5.64;48.88
47785;BME280;35233;55.686;37.848;2023-11-19T03:42:20;100601.34;;;5.63;48.47
47785;BME280;35233;55.686;37.848;2023-11-19T03:44:48;100604.91;;;5.72;48.57
47785;BME280;35233;55.686;37.848;2023-11-19T03:47:15;100599.66;;;5.70;48.19
47785;BME280;35233;55.686;37.848;2023-11-19T03:49:40;100600.53;;;5.69;48.19
47785;BME280;35233;55.686;37.848;2023-11-19T03:52:06;100593.53;;;5.70;48.24
47785;BME280;35233;55.686;37.848;2023-11-19T03:54:31;100593.53;;;5.70;48.40
47785;BME280;35233;55.686;37.848;2023-11-19T03:56:58;100589.22;;;5.73;48.22
47785;BME280;35233;55.686;37.848;2023-11-19T03:59:25;100592.69;;;5.71;48.47
47785;BME280;35233;55.686;37.848;2023-11-19T04:01:50;100592.69;;;5.75;48.37
47785;BME280;35233;55.686;37.848;2023-11-19T04:04:18;100590.03;;;5.67;48.15
47785;BME280;35233;55.686;37.848;2023-11-19T04:06:44;100590.94;;;5.71;48.19
47785;BME280;35233;55.686;37.848;2023-11-19T04:09:09;100587.44;;;5.75;48.43
47785;BME280;35233;55.686;37.848;2023-11-19T04:11:35;100583.06;;;5.73;48.62
47785;BME280;35233;55.686;37.848;2023-11-19T04:14:01;100576.97;;;5.78;47.86
47785;BME280;35233;55.686;37.848;2023-11-19T04:16:27;100576.13;;;5.76;48.47
47785;BME280;35233;55.686;37.848;2023-11-19T04:18:54;100567.34;;;5.73;48.06
47785;BME280;35233;55.686;37.848;2023-11-19T04:21:19;100564.75;;;5.77;48.25
47785;BME280;35233;55.686;37.848;2023-11-19T04:23:44;100548.97;;;5.68;48.08
47785;BME280;35233;55.686;37.848;2023-11-19T04:26:10;100557.75;;;5.78;48.57
47785;BME280;35233;55.686;37.848;2023-11-19T04:28:35;100554.22;;;5.73;48.28
47785;BME280;35233;55.686;37.848;2023-11-19T04:31:01;100563.88;;;5.74;48.63
47785;BME280;35233;55.686;37.848;2023-11-19T04:33:28;100567.34;;;5.76;48.13
47785;BME280;35233;55.686;37.848;2023-11-19T04:35:54;100561.22;;;5.72;48.46
47785;BME280;35233;55.686;37.848;2023-11-19T04:38:19;100572.56;;;5.73;48.32
47785;BME280;35233;55.686;37.848;2023-11-19T04:40:44;100569.13;;;5.77;48.42
47785;BME280;35233;55.686;37.848;2023-11-19T04:43:10;100569.13;;;5.78;48.23
47785;BME280;35233;55.686;37.848;2023-11-19T04:45:35;100576.13;;;5.79;48.38
47785;BME280;35233;55.686;37.848;2023-11-19T04:48:02;100569.97;;;5.76;48.07
47785;BME280;35233;55.686;37.848;2023-11-19T04:50:27;100565.59;;;5.75;48.55
47785;BME280;35233;55.686;37.848;2023-11-19T04:52:53;100557.75;;;5.75;47.99
47785;BME280;35233;55.686;37.848;2023-11-19T04:55:19;100554.25;;;5.77;47.81
47785;BME280;35233;55.686;37.848;2023-11-19T04:57:44;100563.88;;;5.78;47.96
47785;BME280;35233;55.686;37.848;2023-11-19T05:00:10;100570.00;;;5.79;48.22
47785;BME280;35233;55.686;37.848;2023-11-19T05:02:36;100582.25;;;5.81;48.16
47785;BME280;35233;55.686;37.848;2023-11-19T05:05:02;100584.00;;;5.79;48.28
47785;BME280;35233;55.686;37.848;2023-11-19T05:07:29;100577.84;;;5.74;48.43
47785;BME280;35233;55.686;37.848;2023-11-19T05:09:55;100585.72;;;5.77;48.19
47785;BME280;35233;55.686;37.848;2023-11-19T05:12:20;100580.50;;;5.80;48.31
47785;BME280;35233;55.686;37.848;2023-11-19T05:14:46;100586.63;;;5.79;48.27
47785;BME280;35233;55.686;37.848;2023-11-19T05:17:15;100571.78;;;5.86;47.87
47785;BME280;35233;55.686;37.848;2023-11-19T05:19:43;100577.88;;;5.80;48.21
47785;BME280;35233;55.686;37.848;2023-11-19T05:22:08;100579.63;;;5.80;47.79
47785;BME280;35233;55.686;37.848;2023-11-19T05:24:34;100590.09;;;5.78;48.55
47785;BME280;35233;55.686;37.848;2023-11-19T05:27:01;100592.75;;;5.84;48.28
47785;BME280;35233;55.686;37.848;2023-11-19T05:29:27;100584.78;;;5.64;48.00
47785;BME280;35233;55.686;37.848;2023-11-19T05:31:52;100579.59;;;5.74;47.79
47785;BME280;35233;55.686;37.848;2023-11-19T05:34:19;100595.34;;;5.78;48.38
47785;BME280;35233;55.686;37.848;2023-11-19T05:36:45;100598.81;;;5.76;48.21
47785;BME280;35233;55.686;37.848;2023-11-19T05:39:11;100604.06;;;5.74;48.25
47785;BME280;35233;55.686;37.848;2023-11-19T05:41:36;100597.97;;;5.80;48.11
47785;BME280;35233;55.686;37.848;2023-11-19T05:44:02;100599.72;;;5.79;47.92
47785;BME280;35233;55.686;37.848;2023-11-19T05:46:27;100591.88;;;5.79;48.25
47785;BME280;35233;55.686;37.848;2023-11-19T05:48:53;100595.34;;;5.81;47.94
47785;BME280;35233;55.686;37.848;2023-11-19T05:51:18;100593.59;;;5.80;47.57
47785;BME280;35233;55.686;37.848;2023-11-19T05:53:44;100597.13;;;5.82;48.19
47785;BME280;35233;55.686;37.848;2023-11-19T05:56:15;100590.97;;;5.79;47.97
47785;BME280;35233;55.686;37.848;2023-11-19T05:58:46;100593.66;;;5.85;48.15
47785;BME280;35233;55.686;37.848;2023-11-19T06:01:13;100589.28;;;5.87;48.14
47785;BME280;35233;55.686;37.848;2023-11-19T06:03:39;100573.53;;;5.85;48.25
47785;BME280;35233;55.686;37.848;2023-11-19T06:06:04;100577.06;;;5.89;47.63
47785;BME280;35233;55.686;37.848;2023-11-19T06:08:30;100587.56;;;5.90;47.83
47785;BME280;35233;55.686;37.848;2023-11-19T06:10:56;100581.44;;;5.88;47.30
47785;BME280;35233;55.686;37.848;2023-11-19T06:13:22;100582.38;;;5.94;47.38
47785;BME280;35233;55.686;37.848;2023-11-19T06:15:47;100576.22;;;5.93;47.71
47785;BME280;35233;55.686;37.848;2023-11-19T06:18:13;100564.81;;;5.89;47.74
47785;BME280;35233;55.686;37.848;2023-11-19T06:20:40;100577.13;;;5.95;47.96
47785;BME280;35233;55.686;37.848;2023-11-19T06:23:05;100582.38;;;5.97;47.73
47785;BME280;35233;55.686;37.848;2023-11-19T06:25:32;100576.22;;;5.96;47.63
47785;BME280;35233;55.686;37.848;2023-11-19T06:27:58;100571.78;;;5.87;47.85
47785;BME280;35233;55.686;37.848;2023-11-19T06:30:24;100572.75;;;5.99;47.81
47785;BME280;35233;55.686;37.848;2023-11-19T06:32:50;100574.53;;;6.00;47.72
47785;BME280;35233;55.686;37.848;2023-11-19T06:35:15;100573.66;;;6.01;47.82
47785;BME280;35233;55.686;37.848;2023-11-19T06:37:41;100571.03;;;6.01;47.40
47785;BME280;35233;55.686;37.848;2023-11-19T06:40:07;100576.31;;;6.02;47.41
47785;BME280;35233;55.686;37.848;2023-11-19T06:42:35;100566.69;;;6.03;47.08
47785;BME280;35233;55.686;37.848;2023-11-19T06:45:01;100572.81;;;6.06;47.06
47785;BME280;35233;55.686;37.848;2023-11-19T06:47:27;100573.69;;;6.05;47.90
47785;BME280;35233;55.686;37.848;2023-11-19T06:49:53;100562.31;;;6.06;47.52
47785;BME280;35233;55.686;37.848;2023-11-19T06:52:19;100553.56;;;6.03;47.18
47785;BME280;35233;55.686;37.848;2023-11-19T06:54:49;100565.84;;;6.15;47.29
47785;BME280;35233;55.686;37.848;2023-11-19T06:57:17;100559.75;;;6.14;47.34
47785;BME280;35233;55.686;37.848;2023-11-19T06:59:43;100563.25;;;6.25;47.26
47785;BME280;35233;55.686;37.848;2023-11-19T07:02:08;100564.19;;;6.32;46.80
47785;BME280;35233;55.686;37.848;2023-11-19T07:04:34;100567.69;;;6.39;47.15
47785;BME280;35233;55.686;37.848;2023-11-19T07:06:59;100567.72;;;6.43;46.23
47785;BME280;35233;55.686;37.848;2023-11-19T07:09:25;100565.06;;;6.42;46.51
47785;BME280;35233;55.686;37.848;2023-11-19T07:11:51;100565.94;;;6.45;46.75
47785;BME280;35233;55.686;37.848;2023-11-19T07:14:17;100554.59;;;6.43;46.88
47785;BME280;35233;55.686;37.848;2023-11-19T07:16:43;100568.59;;;6.50;46.28
47785;BME280;35233;55.686;37.848;2023-11-19T07:19:09;100574.69;;;6.43;46.55
47785;BME280;35233;55.686;37.848;2023-11-19T07:21:35;100568.59;;;6.44;46.42
47785;BME280;35233;55.686;37.848;2023-11-19T07:24:05;100565.97;;;6.44;46.66
47785;BME280;35233;55.686;37.848;2023-11-19T07:26:30;100566.00;;;6.54;46.57
47785;BME280;35233;55.686;37.848;2023-11-19T07:28:56;100575.59;;;6.51;46.67
47785;BME280;35233;55.686;37.848;2023-11-19T07:31:33;100573.81;;;6.45;46.05
47785;BME280;35233;55.686;37.848;2023-11-19T07:33:58;100577.34;;;6.47;46.37
47785;BME280;35233;55.686;37.848;2023-11-19T07:36:24;100565.13;;;6.60;46.23
47785;BME280;35233;55.686;37.848;2023-11-19T07:38:49;100568.63;;;6.65;46.06
47785;BME280;35233;55.686;37.848;2023-11-19T07:41:15;100570.41;;;6.72;46.32
47785;BME280;35233;55.686;37.848;2023-11-19T07:43:43;100553.75;;;6.69;45.74
47785;BME280;35233;55.686;37.848;2023-11-19T07:46:13;100566.03;;;6.76;46.26
47785;BME280;35233;55.686;37.848;2023-11-19T07:48:42;100562.53;;;6.74;45.99
47785;BME280;35233;55.686;37.848;2023-11-19T07:51:07;100566.88;;;6.69;46.32
47785;BME280;35233;55.686;37.848;2023-11-19T07:53:33;100569.50;;;6.69;46.26
47785;BME280;35233;55.686;37.848;2023-11-19T07:56:00;100576.53;;;6.61;45.79
47785;BME280;35233;55.686;37.848;2023-11-19T07:58:25;100569.50;;;6.55;46.28
47785;BME280;35233;55.686;37.848;2023-11-19T08:00:51;100563.34;;;6.51;46.39
47785;BME280;35233;55.686;37.848;2023-11-19T08:03:17;100556.38;;;6.56;46.04
47785;BME280;35233;55.686;37.848;2023-11-19T08:05:44;100552.00;;;6.55;46.76
47785;BME280;35233;55.686;37.848;2023-11-19T08:08:11;100565.09;;;6.51;46.54
47785;BME280;35233;55.686;37.848;2023-11-19T08:10:37;100555.50;;;6.53;46.29
47785;BME280;35233;55.686;37.848;2023-11-19T08:13:02;100559.84;;;6.51;46.22
47785;BME280;35233;55.686;37.848;2023-11-19T08:15:28;100554.63;;;6.52;46.81
47785;BME280;35233;55.686;37.848;2023-11-19T08:17:53;100554.63;;;6.58;46.39
47785;BME280;35233;55.686;37.848;2023-11-19T08:20:19;100543.22;;;6.47;46.74
47785;BME280;35233;55.686;37.848;2023-11-19T08:22:44;100548.47;;;6.53;46.30
47785;BME280;35233;55.686;37.848;2023-11-19T08:28:16;100544.16;;;6.72;46.80
47785;BME280;35233;55.686;37.848;2023-11-19T08:30:41;100543.28;;;6.78;46.23
47785;BME280;35233;55.686;37.848;2023-11-19T08:33:09;100535.38;;;6.72;46.54
47785;BME280;35233;55.686;37.848;2023-11-19T08:35:35;100527.50;;;6.72;46.62
47785;BME280;35233;55.686;37.848;2023-11-19T08:38:00;100530.16;;;6.70;46.92
47785;BME280;35233;55.686;37.848;2023-11-19T08:40:27;100543.31;;;6.81;46.22
47785;BME280;35233;55.686;37.848;2023-11-19T08:42:52;100537.13;;;6.77;46.00
47785;BME280;35233;55.686;37.848;2023-11-19T08:45:18;100537.16;;;6.82;46.37
47785;BME280;35233;55.686;37.848;2023-11-19T08:47:44;100534.53;;;6.79;46.51
47785;BME280;35233;55.686;37.848;2023-11-19T08:50:11;100531.94;;;6.87;46.35
47785;BME280;35233;55.686;37.848;2023-11-19T08:52:37;100525.78;;;6.80;46.40
47785;BME280;35233;55.686;37.848;2023-11-19T08:55:03;100530.16;;;6.83;46.66
47785;BME280;35233;55.686;37.848;2023-11-19T08:57:31;100526.63;;;6.74;46.67
47785;BME280;35233;55.686;37.848;2023-11-19T08:59:56;100531.88;;;6.74;46.74
47785;BME280;35233;55.686;37.848;2023-11-19T09:02:22;100530.16;;;6.79;46.73
47785;BME280;35233;55.686;37.848;2023-11-19T09:04:47;100528.41;;;6.85;46.63
47785;BME280;35233;55.686;37.848;2023-11-19T09:07:13;100527.53;;;6.79;46.83
47785;BME280;35233;55.686;37.848;2023-11-19T09:09:38;100529.25;;;6.74;47.11
47785;BME280;35233;55.686;37.848;2023-11-19T09:12:04;100522.25;;;6.69;46.65
47785;BME280;35233;55.686;37.848;2023-11-19T09:14:30;100518.78;;;6.76;46.70
47785;BME280;35233;55.686;37.848;2023-11-19T09:16:56;100504.78;;;6.78;46.57
47785;BME280;35233;55.686;37.848;2023-11-19T09:19:22;100482.88;;;6.64;46.42
47785;BME280;35233;55.686;37.848;2023-11-19T09:21:47;100502.16;;;6.78;46.65
47785;BME280;35233;55.686;37.848;2023-11-19T09:24:15;100498.66;;;6.81;47.06
47785;BME280;35233;55.686;37.848;2023-11-19T09:26:43;100510.03;;;6.94;46.24
47785;BME280;35233;55.686;37.848;2023-11-19T09:29:09;100504.75;;;6.89;46.54
47785;BME280;35233;55.686;37.848;2023-11-19T09:31:34;100515.31;;;6.92;46.86
47785;BME280;35233;55.686;37.848;2023-11-19T09:34:01;100507.41;;;6.91;46.11
47785;BME280;35233;55.686;37.848;2023-11-19T09:36:26;100495.16;;;6.96;46.88
47785;BME280;35233;55.686;37.848;2023-11-19T09:38:52;100496.91;;;6.91;46.41
47785;BME280;35233;55.686;37.848;2023-11-19T09:41:17;100480.28;;;6.84;46.28
47785;BME280;35233;55.686;37.848;2023-11-19T09:43:45;100480.28;;;6.87;46.69
47785;BME280;35233;55.686;37.848;2023-11-19T09:46:13;100472.41;;;6.75;46.46
47785;BME280;35233;55.686;37.848;2023-11-19T09:48:40;100478.50;;;6.80;46.87
47785;BME280;35233;55.686;37.848;2023-11-19T09:51:10;100473.25;;;6.78;46.19
47785;BME280;35233;55.686;37.848;2023-11-19T09:53:37;100475.00;;;6.79;46.74
47785;BME280;35233;55.686;37.848;2023-11-19T09:56:03;100467.13;;;6.83;46.75
47785;BME280;35233;55.686;37.848;2023-11-19T09:58:30;100469.75;;;6.76;46.21
47785;BME280;35233;55.686;37.848;2023-11-19T10:00:57;100455.75;;;6.79;46.11
47785;BME280;35233;55.686;37.848;2023-11-19T10:03:32;100457.50;;;6.68;46.52
47785;BME280;35233;55.686;37.848;2023-11-19T10:06:00;100455.38;;;8.11;45.84
47785;BME280;35233;55.686;37.848;2023-11-19T10:08:26;100458.38;;;7.16;47.48
47785;BME280;35233;55.686;37.848;2023-11-19T10:10:52;100444.38;;;6.82;47.95
47785;BME280;35233;55.686;37.848;2023-11-19T10:13:17;100440.88;;;6.76;47.13
47785;BME280;35233;55.686;37.848;2023-11-19T10:15:43;100454.88;;;6.71;47.38
47785;BME280;35233;55.686;37.848;2023-11-19T10:18:11;100448.72;;;6.63;47.82
47785;BME280;35233;55.686;37.848;2023-11-19T10:20:42;100451.34;;;6.66;47.68
47785;BME280;35233;55.686;37.848;2023-11-19T10:23:08;100444.34;;;6.57;47.80
47785;BME280;35233;55.686;37.848;2023-11-19T10:25:34;100452.25;;;6.62;47.95
47785;BME280;35233;55.686;37.848;2023-11-19T10:28:00;100442.63;;;6.54;48.09
47785;BME280;35233;55.686;37.848;2023-11-19T10:30:27;100442.63;;;6.53;48.06
47785;BME280;35233;55.686;37.848;2023-11-19T10:33:12;100444.34;;;6.54;48.68
47785;BME280;35233;55.686;37.848;2023-11-19T10:35:57;100424.22;;;6.36;48.53
47785;BME280;35233;55.686;37.848;2023-11-19T10:38:24;100435.63;;;6.49;48.50
47785;BME280;35233;55.686;37.848;2023-11-19T10:40:54;100445.25;;;6.53;48.55
47785;BME280;35233;55.686;37.848;2023-11-19T10:43:23;100434.75;;;6.54;48.66
47785;BME280;35233;55.686;37.848;2023-11-19T10:45:48;100412.88;;;6.37;48.56
47785;BME280;35233;55.686;37.848;2023-11-19T10:48:15;100441.75;;;6.49;48.73
47785;BME280;35233;55.686;37.848;2023-11-19T10:50:42;100440.88;;;6.52;48.46
47785;BME280;35233;55.686;37.848;2023-11-19T10:53:09;100433.88;;;6.49;48.62
47785;BME280;35233;55.686;37.848;2023-11-19T10:55:36;100435.63;;;6.49;49.00
47785;BME280;35233;55.686;37.848;2023-11-19T10:58:09;100441.72;;;6.48;48.69
47785;BME280;35233;55.686;37.848;2023-11-19T11:00:45;100426.88;;;6.47;48.40
47785;BME280;35233;55.686;37.848;2023-11-19T11:03:20;100433.88;;;6.49;48.62
47785;BME280;35233;55.686;37.848;2023-11-19T11:05:48;100437.34;;;6.51;48.74
47785;BME280;35233;55.686;37.848;2023-11-19T11:08:14;100442.59;;;6.44;48.70
47785;BME280;35233;55.686;37.848;2023-11-19T11:10:44;100440.84;;;6.41;48.65
47785;BME280;35233;55.686;37.848;2023-11-19T11:13:10;100440.88;;;6.46;48.62
47785;BME280;35233;55.686;37.848;2023-11-19T11:15:37;100439.09;;;6.42;48.70
47785;BME280;35233;55.686;37.848;2023-11-19T11:18:06;100436.50;;;6.46;49.14
47785;BME280;35233;55.686;37.848;2023-11-19T11:20:33;100436.50;;;6.40;48.96
47785;BME280;35233;55.686;37.848;2023-11-19T11:26:18;100446.09;;;6.43;49.52
47785;BME280;35233;55.686;37.848;2023-11-19T11:32:14;100419.06;;;8.67;55.53
47785;BME280;35233;55.686;37.848;2023-11-19T11:40:01;100425.09;;;6.89;49.78
47785;BME280;35233;55.686;37.848;2023-11-19T11:42:37;100416.34;;;6.71;50.52
47785;BME280;35233;55.686;37.848;2023-11-19T11:45:09;100414.63;;;6.67;50.04
47785;BME280;35233;55.686;37.848;2023-11-19T11:58:11;100423.34;;;6.51;50.13
47785;BME280;35233;55.686;37.848;2023-11-19T12:00:40;100428.59;;;6.57;49.81
47785;BME280;35233;55.686;37.848;2023-11-19T12:03:07;100427.72;;;6.53;49.92
47785;BME280;35233;55.686;37.848;2023-11-19T12:05:38;100408.84;;;8.24;48.21
47785;BME280;35233;55.686;37.848;2023-11-19T12:08:05;100415.41;;;7.15;50.13
47785;BME280;35233;55.686;37.848;2023-11-19T12:10:49;100382.22;;;6.59;50.59
47785;BME280;35233;55.686;37.848;2023-11-19T12:13:17;100418.13;;;6.66;51.21
47785;BME280;35233;55.686;37.848;2023-11-19T12:18:31;100411.13;;;6.84;50.05
47785;BME280;35233;55.686;37.848;2023-11-19T12:20:58;100414.63;;;6.67;51.12
47785;BME280;35233;55.686;37.848;2023-11-19T12:23:27;100416.38;;;6.56;51.58
47785;BME280;35233;55.686;37.848;2023-11-19T12:25:54;100414.63;;;6.52;51.48
47785;BME280;35233;55.686;37.848;2023-11-19T12:28:20;100413.75;;;6.47;51.40
47785;BME280;35233;55.686;37.848;2023-11-19T12:30:46;100411.97;;;6.41;51.14
47785;BME280;35233;55.686;37.848;2023-11-19T12:33:14;100404.97;;;6.35;51.71
47785;BME280;35233;55.686;37.848;2023-11-19T12:35:42;100406.72;;;6.37;51.55
47785;BME280;35233;55.686;37.848;2023-11-19T12:38:18;100398.84;;;6.30;51.89
47785;BME280;35233;55.686;37.848;2023-11-19T12:40:43;100402.34;;;6.32;52.70
47785;BME280;35233;55.686;37.848;2023-11-19T12:43:09;100397.97;;;6.30;52.24
47785;BME280;35233;55.686;37.848;2023-11-19T12:45:35;100377.84;;;6.24;52.61
47785;BME280;35233;55.686;37.848;2023-11-19T12:48:07;100388.34;;;6.27;52.44
47785;BME280;35233;55.686;37.848;2023-11-19T12:53:18;100385.75;;;6.29;51.86
47785;BME280;35233;55.686;37.848;2023-11-19T12:55:44;100375.22;;;6.30;52.10
47785;BME280;35233;55.686;37.848;2023-11-19T12:58:10;100378.72;;;6.23;51.94
47785;BME280;35233;55.686;37.848;2023-11-19T13:00:36;100377.84;;;6.24;52.28
47785;BME280;35233;55.686;37.848;2023-11-19T13:03:01;100375.22;;;6.21;52.24
47785;BME280;35233;55.686;37.848;2023-11-19T13:05:31;100369.09;;;6.19;51.86
47785;BME280;35233;55.686;37.848;2023-11-19T13:08:10;100358.59;;;6.22;52.08
47785;BME280;35233;55.686;37.848;2023-11-19T13:10:57;100367.34;;;6.18;51.96
47785;BME280;35233;55.686;37.848;2023-11-19T13:13:23;100363.00;;;6.14;52.34
47785;BME280;35233;55.686;37.848;2023-11-19T13:15:48;100366.47;;;6.15;52.20
47785;BME280;35233;55.686;37.848;2023-11-19T13:18:16;100366.47;;;6.15;52.30
47785;BME280;35233;55.686;37.848;2023-11-19T13:20:41;100354.22;;;6.09;52.24
47785;BME280;35233;55.686;37.848;2023-11-19T13:23:10;100344.59;;;6.05;52.26